Time;durP1;ratioP1;P1;durP2;ratioP2;P2;SDS_P1;SDS_P2;PMS_P1;PMS_P2;Temp;Humidity;BMP_temperature;BMP_pressure;BME280_temperature;BME280_humidity;BME280_pressure;Samples;Min_cycle;Max_cycle;Signal;HPM_P1;HPM_P2
2024/02/22 04:44:55;;;;;;;4.20;3.80;;;;;;;8.08;57.10;102215.48;104902;1295;559566;-55
2024/02/22 04:50:59;;;;;;;6.70;3.10;;;;;;;8.46;56.07;102206.58;104522;1295;558168;-55
2024/02/22 04:53:28;;;;;;;2.90;2.70;;;;;;;9.36;53.72;102199.84;106125;1271;25418;-55
2024/02/22 04:55:56;;;;;;;5.00;2.80;;;;;;;9.26;53.89;102195.98;106033;1278;25507;-56
2024/02/22 04:58:23;;;;;;;2.90;2.70;;;;;;;9.23;53.96;102193.18;106180;1271;25390;-55
2024/02/22 05:00:50;;;;;;;2.90;2.60;;;;;;;9.23;53.86;102188.52;106114;1278;25514;-55
2024/02/22 05:03:17;;;;;;;3.00;2.70;;;;;;;9.24;53.71;102184.70;105706;1284;283726;-55
2024/02/22 05:05:44;;;;;;;3.10;2.40;;;;;;;9.24;53.69;102180.71;106267;1268;24223;-55
2024/02/22 05:08:11;;;;;;;2.50;2.30;;;;;;;9.23;53.70;102179.52;105952;1275;25413;-55
2024/02/22 05:10:38;;;;;;;4.20;2.80;;;;;;;9.22;53.52;102174.98;106023;1271;24050;-57
2024/02/22 05:13:06;;;;;;;3.10;2.70;;;;;;;9.20;53.35;102177.92;106402;1269;25450;-57
2024/02/22 05:15:33;;;;;;;3.00;2.80;;;;;;;9.19;53.15;102179.80;106280;1278;25389;-57
2024/02/22 05:18:00;;;;;;;3.40;2.80;;;;;;;9.18;53.27;102177.90;106320;1272;25443;-57
2024/02/22 05:20:30;;;;;;;6.70;6.10;;;;;;;9.17;53.10;102178.42;106340;1266;22595;-57
2024/02/22 05:22:57;;;;;;;4.80;4.40;;;;;;;9.16;52.93;102174.08;106236;1269;25366;-57
2024/02/22 05:25:25;;;;;;;3.60;3.10;;;;;;;9.15;52.81;102170.09;106329;1268;25363;-57
2024/02/22 05:27:52;;;;;;;3.20;2.90;;;;;;;9.13;52.90;102170.42;106302;1268;24220;-57
2024/02/22 05:30:19;;;;;;;6.10;3.00;;;;;;;9.17;52.77;102174.44;105967;1280;23407;-57
2024/02/22 05:32:47;;;;;;;3.70;3.40;;;;;;;9.34;52.08;102179.05;105637;1268;1003834;-57
2024/02/22 05:35:14;;;;;;;3.40;3.10;;;;;;;9.37;51.94;102175.60;106400;1268;22533;-57
2024/02/22 05:37:42;;;;;;;2.80;2.60;;;;;;;9.38;51.91;102175.42;106477;1277;25351;-57
2024/02/22 05:40:09;;;;;;;3.30;3.00;;;;;;;9.38;51.90;102173.86;106008;1282;25495;-57
2024/02/22 05:42:36;;;;;;;3.70;3.30;;;;;;;9.39;51.81;102174.91;105541;1268;1003739;-56
2024/02/22 05:45:06;;;;;;;3.70;3.10;;;;;;;9.40;51.75;102174.58;105904;1271;25587;-56
2024/02/22 05:47:34;;;;;;;3.10;2.80;;;;;;;9.42;51.69;102178.23;106260;1268;24871;-56
2024/02/22 05:50:03;;;;;;;4.70;3.30;;;;;;;9.43;51.75;102179.63;105180;1271;1003335;-56
2024/02/22 05:52:30;;;;;;;2.90;2.60;;;;;;;9.45;51.82;102183.79;106091;1270;22653;-56
2024/02/22 05:54:57;;;;;;;3.70;2.90;;;;;;;9.49;51.68;102188.14;106338;1269;25498;-56
2024/02/22 05:57:25;;;;;;;2.90;2.40;;;;;;;9.52;51.79;102188.85;106365;1276;23260;-56
2024/02/22 05:59:52;;;;;;;2.70;2.50;;;;;;;9.55;51.70;102188.70;105599;1268;1003730;-56
2024/02/22 06:02:19;;;;;;;2.50;2.30;;;;;;;9.57;51.73;102188.70;106276;1268;25360;-56
2024/02/22 06:04:46;;;;;;;2.50;2.30;;;;;;;9.59;51.88;102187.48;106317;1268;25460;-56
2024/02/22 06:07:13;;;;;;;2.50;2.30;;;;;;;9.64;51.81;102190.81;105972;1279;25361;-56
2024/02/22 06:09:41;;;;;;;2.60;2.40;;;;;;;9.68;52.02;102190.48;105861;1280;25386;-56
2024/02/22 06:12:08;;;;;;;3.10;2.80;;;;;;;9.76;51.90;102194.69;106400;1268;25365;-56
2024/02/22 06:14:38;;;;;;;3.50;3.00;;;;;;;9.83;52.07;102196.96;106750;1270;25361;-56
2024/02/22 06:17:05;;;;;;;2.90;2.70;;;;;;;9.91;52.16;102196.65;106380;1274;25446;-56
2024/02/22 06:19:32;;;;;;;3.10;2.80;;;;;;;10.00;52.02;102200.49;105655;1274;1003320;-55
2024/02/22 06:22:00;;;;;;;3.50;3.20;;;;;;;10.08;52.04;102195.69;106633;1271;25380;-55
2024/02/22 06:24:27;;;;;;;3.70;3.40;;;;;;;10.17;51.86;102191.74;106896;1275;25554;-56
2024/02/22 06:26:53;;;;;;;3.20;3.00;;;;;;;10.26;51.73;102193.33;105974;1271;1002988;-55
2024/02/22 06:29:20;;;;;;;4.10;3.70;;;;;;;10.35;51.46;102193.01;106398;1263;23316;-56
2024/02/22 06:31:48;;;;;;;6.20;4.30;;;;;;;10.42;51.47;102195.61;105912;1272;1003703;-55
2024/02/22 06:34:16;;;;;;;3.70;3.40;;;;;;;10.49;51.43;102202.56;106375;1276;25352;-54
2024/02/22 06:36:43;;;;;;;9.30;3.40;;;;;;;10.56;51.52;102207.78;106741;1272;22538;-55
2024/02/22 06:39:10;;;;;;;3.80;3.40;;;;;;;10.61;51.34;102213.69;106717;1273;25354;-55
2024/02/22 06:41:37;;;;;;;6.00;3.10;;;;;;;10.62;51.20;102213.86;106746;1270;25344;-55
2024/02/22 06:44:05;;;;;;;4.60;3.30;;;;;;;10.64;51.05;102215.59;106815;1270;25373;-55
2024/02/22 06:46:33;;;;;;;3.60;3.30;;;;;;;10.68;50.95;102219.08;106863;1273;25355;-55
2024/02/22 06:49:00;;;;;;;3.30;3.00;;;;;;;10.69;50.85;102225.33;106773;1267;24279;-55
2024/02/22 06:51:27;;;;;;;3.10;2.80;;;;;;;10.62;51.13;102234.87;106703;1266;25331;-55
2024/02/22 06:53:54;;;;;;;3.20;2.70;;;;;;;10.51;51.05;102238.65;106799;1260;25296;-55
2024/02/22 06:56:21;;;;;;;4.50;3.40;;;;;;;10.39;51.07;102233.42;106457;1267;24366;-55
2024/02/22 06:58:48;;;;;;;3.60;3.30;;;;;;;10.33;51.51;102230.64;106686;1267;25249;-55
2024/02/22 07:01:16;;;;;;;4.20;3.00;;;;;;;10.35;51.66;102230.98;106781;1269;25400;-55
2024/02/22 07:03:43;;;;;;;2.90;2.60;;;;;;;10.41;51.80;102229.61;106790;1272;25364;-55
2024/02/22 07:06:11;;;;;;;3.20;2.90;;;;;;;10.50;51.92;102225.81;106829;1273;23868;-55
2024/02/22 07:08:39;;;;;;;2.80;2.60;;;;;;;10.60;52.05;102221.50;106580;1265;25418;-55
2024/02/22 07:11:10;;;;;;;2.50;2.30;;;;;;;10.69;51.83;102217.52;105705;1270;1003074;-55
2024/02/22 07:13:37;;;;;;;;;;;;;;;10.64;51.37;102222.72;105954;1270;1003627;-56
2024/02/22 07:16:04;;;;;;;3.30;2.90;;;;;;;10.60;51.78;102218.38;106743;1272;22529;-55
2024/02/22 07:18:32;;;;;;;2.60;2.40;;;;;;;10.71;52.03;102220.30;106535;1270;25444;-55
2024/02/22 07:21:00;;;;;;;2.80;2.50;;;;;;;10.86;51.40;102217.86;106722;1270;25500;-56
2024/02/22 07:23:27;;;;;;;6.70;2.70;;;;;;;10.73;51.26;102215.61;106652;1274;22629;-55
2024/02/22 07:25:55;;;;;;;3.30;3.00;;;;;;;10.57;51.62;102212.48;106752;1272;24275;-55
2024/02/22 07:28:22;;;;;;;4.00;2.90;;;;;;;10.51;52.19;102206.02;106761;1275;24245;-55
2024/02/22 07:30:49;;;;;;;3.40;3.10;;;;;;;10.52;52.43;102202.23;106479;1276;22543;-55
2024/02/22 07:33:16;;;;;;;3.40;3.10;;;;;;;10.58;52.77;102201.36;106503;1276;25373;-55
2024/02/22 07:35:45;;;;;;;3.80;3.50;;;;;;;10.68;52.85;102204.15;106775;1270;25432;-55
2024/02/22 07:38:12;;;;;;;6.80;3.30;;;;;;;10.75;52.83;102212.66;107028;1268;25345;-55
2024/02/22 07:40:40;;;;;;;9.90;3.70;;;;;;;10.75;52.63;102214.91;107036;1268;25399;-55
2024/02/22 07:43:07;;;;;;;5.00;3.60;;;;;;;10.75;52.84;102215.45;106958;1267;25335;-55
2024/02/22 07:45:35;;;;;;;3.80;3.50;;;;;;;10.76;52.85;102217.18;106265;1268;1002597;-55
2024/02/22 07:48:08;;;;;;;4.00;3.60;;;;;;;10.76;52.86;102215.61;106996;1274;25400;-55
2024/02/22 07:50:36;;;;;;;4.30;3.80;;;;;;;10.82;53.06;102208.33;107124;1268;25414;-55
2024/02/22 07:53:04;;;;;;;5.80;4.30;;;;;;;10.89;53.09;102206.23;106771;1269;25568;-55
2024/02/22 07:55:31;;;;;;;4.70;4.20;;;;;;;10.99;53.16;102199.48;106135;1273;1003131;-55
2024/02/22 07:57:59;;;;;;;5.20;3.60;;;;;;;11.08;53.10;102196.86;106321;1268;1003706;-54
2024/02/22 08:00:27;;;;;;;4.30;3.80;;;;;;;11.21;53.06;102196.67;107076;1267;25338;-55
2024/02/22 08:02:54;;;;;;;4.30;3.90;;;;;;;11.33;52.90;102196.47;107040;1268;25449;-54
2024/02/22 08:05:22;;;;;;;4.40;4.00;;;;;;;11.35;53.01;102198.55;107014;1261;25370;-55
2024/02/22 08:07:50;;;;;;;4.80;4.20;;;;;;;11.37;53.11;102198.54;107081;1269;25369;-55
2024/02/22 08:10:18;;;;;;;5.30;4.20;;;;;;;11.47;53.08;102200.09;107039;1270;25428;-55
2024/02/22 08:12:45;;;;;;;4.50;4.10;;;;;;;11.63;52.78;102200.06;107151;1267;25365;-55
2024/02/22 08:15:12;;;;;;;6.40;4.80;;;;;;;11.86;52.32;102200.01;106940;1267;25397;-55
2024/02/22 08:17:41;;;;;;;5.30;4.30;;;;;;;11.99;52.10;102202.38;107002;1272;25352;-55
2024/02/22 08:20:09;;;;;;;4.30;3.90;;;;;;;12.07;51.85;102202.86;107031;1267;25366;-55
2024/02/22 08:22:36;;;;;;;3.60;3.20;;;;;;;12.12;51.48;102200.40;107099;1272;25463;-55
2024/02/22 08:25:06;;;;;;;6.10;4.70;;;;;;;12.18;51.49;102204.89;107139;1268;25366;-55
2024/02/22 08:27:33;;;;;;;5.00;4.50;;;;;;;12.24;51.14;102198.95;106399;1267;1003815;-55
2024/02/22 08:30:01;;;;;;;5.00;4.20;;;;;;;12.28;51.14;102194.58;106787;1267;25436;-55
2024/02/22 08:32:28;;;;;;;7.50;6.70;;;;;;;12.32;51.29;102189.33;107081;1271;25572;-55
2024/02/22 08:34:58;;;;;;;8.20;5.90;;;;;;;12.40;51.50;102190.33;106293;1269;1003296;-55
2024/02/22 08:37:25;;;;;;;4.90;4.50;;;;;;;12.49;51.46;102191.48;107042;1267;25561;-55
2024/02/22 08:39:52;;;;;;;4.10;3.70;;;;;;;12.60;51.14;102192.27;107049;1267;22527;-55
2024/02/22 08:42:20;;;;;;;4.60;4.20;;;;;;;12.66;50.68;102194.48;107003;1270;25344;-55
2024/02/22 08:44:49;;;;;;;4.80;4.20;;;;;;;12.70;50.22;102190.45;106957;1271;25571;-55
2024/02/22 08:47:16;;;;;;;4.80;3.70;;;;;;;12.72;50.03;102187.81;107176;1271;25495;-55
2024/02/22 08:49:47;;;;;;;4.80;4.00;;;;;;;12.72;49.72;102188.17;107041;1271;25348;-55
2024/02/22 08:52:14;;;;;;;3.70;3.40;;;;;;;12.70;49.74;102192.36;106991;1267;25533;-53
2024/02/22 08:54:44;;;;;;;3.30;3.00;;;;;;;12.68;49.64;102190.99;106711;1267;25532;-52
2024/02/22 08:57:11;;;;;;;4.40;3.80;;;;;;;12.66;49.71;102192.22;106934;1270;25338;-53
2024/02/22 08:59:38;;;;;;;4.50;3.40;;;;;;;12.64;49.77;102195.55;107055;1267;25338;-53
2024/02/22 09:02:05;;;;;;;3.50;3.20;;;;;;;12.64;49.75;102196.58;107051;1267;23191;-53
2024/02/22 09:04:33;;;;;;;3.90;2.70;;;;;;;12.63;49.88;102201.98;106647;1275;25359;-53
2024/02/22 09:07:01;;;;;;;3.20;2.90;;;;;;;12.60;50.05;102201.31;107028;1270;25381;-53
2024/02/22 09:09:28;;;;;;;3.10;2.80;;;;;;;12.58;50.30;102204.98;107005;1269;25498;-53
2024/02/22 09:11:55;;;;;;;3.60;3.00;;;;;;;12.58;50.52;102205.68;106490;1268;1002598;-53
2024/02/22 09:14:23;;;;;;;3.10;2.90;;;;;;;12.59;50.83;102205.14;107068;1267;25383;-53
2024/02/22 09:16:50;;;;;;;3.80;2.70;;;;;;;12.60;50.80;102203.23;107020;1267;25344;-54
2024/02/22 09:19:17;;;;;;;4.50;2.80;;;;;;;12.60;50.95;102206.02;107220;1270;25386;-53
2024/02/22 09:21:46;;;;;;;3.20;2.90;;;;;;;12.59;51.14;102204.27;107138;1267;23204;-53
2024/02/22 09:24:13;;;;;;;3.40;3.00;;;;;;;12.59;51.39;102205.67;107205;1254;25476;-54
2024/02/22 09:26:40;;;;;;;3.60;3.20;;;;;;;12.59;51.46;102202.88;107018;1271;25473;-53
2024/02/22 09:29:08;;;;;;;4.40;3.40;;;;;;;12.59;51.62;102204.09;107205;1267;25376;-53
2024/02/22 09:31:36;;;;;;;3.50;3.20;;;;;;;12.59;51.80;102201.84;106806;1273;25358;-53
2024/02/22 09:34:04;;;;;;;3.40;3.10;;;;;;;12.61;51.96;102202.02;107117;1251;23179;-54
2024/02/22 09:36:31;;;;;;;3.90;3.50;;;;;;;12.62;52.15;102196.07;106973;1267;25355;-53
2024/02/22 09:38:59;;;;;;;4.00;3.60;;;;;;;12.65;52.27;102193.44;107113;1267;25328;-53
2024/02/22 09:41:26;;;;;;;4.00;3.40;;;;;;;12.68;52.36;102192.56;107111;1270;25380;-53
2024/02/22 09:43:53;;;;;;;3.80;3.40;;;;;;;12.71;52.51;102184.16;106702;1267;25359;-54
2024/02/22 09:46:21;;;;;;;5.80;4.30;;;;;;;12.75;52.65;102175.60;106999;1267;25394;-53
2024/02/22 09:48:48;;;;;;;6.90;4.50;;;;;;;12.80;52.76;102166.68;106935;1261;25416;-54
2024/02/22 09:51:16;;;;;;;4.80;4.30;;;;;;;12.84;52.91;102165.77;106627;1273;24248;-54
2024/02/22 09:53:45;;;;;;;5.60;5.10;;;;;;;12.86;53.10;102164.19;106471;1281;22581;-54
2024/02/22 09:56:16;;;;;;;5.60;4.50;;;;;;;12.95;53.30;102162.55;105712;1277;1002926;-53
2024/02/22 09:58:48;;;;;;;5.30;4.70;;;;;;;13.05;53.13;102160.54;106659;1273;25377;-54
2024/02/22 10:01:15;;;;;;;5.60;4.90;;;;;;;13.16;53.07;102158.20;106361;1275;22533;-54
2024/02/22 10:03:42;;;;;;;6.40;4.90;;;;;;;13.21;52.98;102155.72;106710;1274;22553;-54
2024/02/22 10:06:17;;;;;;;5.50;5.00;;;;;;;13.22;53.25;102155.86;106655;1273;25368;-54
2024/02/22 10:08:44;;;;;;;4.70;4.20;;;;;;;13.36;53.02;102148.21;106692;1273;24505;-54
2024/02/22 10:11:13;;;;;;;4.70;4.20;;;;;;;13.46;52.90;102146.52;106695;1273;25423;-54
2024/02/22 10:13:41;;;;;;;5.10;4.60;;;;;;;13.53;52.81;102144.71;107030;1275;24259;-54
2024/02/22 10:16:12;;;;;;;4.40;4.00;;;;;;;13.60;52.61;102140.10;106899;1273;22544;-54
2024/02/22 10:18:40;;;;;;;5.70;4.50;;;;;;;13.66;52.62;102140.72;106685;1267;23886;-54
2024/02/22 10:21:17;;;;;;;6.70;4.70;;;;;;;13.72;52.59;102135.40;106833;1257;22625;-55
2024/02/22 10:23:45;;;;;;;4.90;4.30;;;;;;;13.79;52.46;102133.05;106907;1270;23855;-55
2024/02/22 10:26:13;;;;;;;5.30;3.90;;;;;;;13.87;52.36;102130.66;107286;1273;22539;-54
2024/02/22 10:28:40;;;;;;;5.10;4.40;;;;;;;13.94;52.23;102125.69;107029;1264;24197;-54
2024/02/22 10:31:07;;;;;;;5.50;3.80;;;;;;;14.01;52.04;102125.60;107225;1268;25533;-54
2024/02/22 10:33:35;;;;;;;6.00;4.00;;;;;;;14.08;51.91;102123.73;106848;1274;25468;-54
2024/02/22 10:36:02;;;;;;;4.10;3.70;;;;;;;14.14;51.78;102117.55;106139;1270;1002915;-54
2024/02/22 10:38:31;;;;;;;5.60;3.10;;;;;;;14.19;51.50;102112.25;106934;1270;22532;-55
2024/02/22 10:41:00;;;;;;;3.40;3.00;;;;;;;14.24;51.34;102107.62;107301;1267;25357;-55
2024/02/22 10:43:29;;;;;;;4.00;2.90;;;;;;;14.31;51.08;102106.50;107229;1266;25367;-55
2024/02/22 10:45:57;;;;;;;4.00;3.30;;;;;;;14.36;50.94;102104.84;107030;1266;25389;-55
2024/02/22 10:48:24;;;;;;;4.10;3.10;;;;;;;14.41;50.75;102098.83;106904;1267;25522;-55
2024/02/22 10:50:53;;;;;;;3.90;3.10;;;;;;;14.47;50.72;102099.61;106908;1269;25348;-55
2024/02/22 10:53:20;;;;;;;3.40;2.90;;;;;;;14.52;50.56;102097.95;107323;1270;22594;-55
2024/02/22 10:55:50;;;;;;;3.00;2.70;;;;;;;14.55;50.28;102095.43;107223;1267;25425;-54
2024/02/22 10:58:18;;;;;;;4.50;3.00;;;;;;;14.58;50.13;102093.14;107095;1267;25457;-55
2024/02/22 11:00:47;;;;;;;2.90;2.30;;;;;;;14.61;50.07;102092.21;106888;1270;25373;-54
2024/02/22 11:03:16;;;;;;;3.20;2.70;;;;;;;14.65;50.05;102090.39;106797;1265;22557;-55
2024/02/22 11:05:46;;;;;;;3.10;2.70;;;;;;;14.69;49.96;102084.56;106882;1273;25426;-55
2024/02/22 11:08:22;;;;;;;4.10;2.80;;;;;;;14.74;49.95;102082.73;106782;1269;25300;-55
2024/02/22 11:11:06;;;;;;;4.70;2.40;;;;;;;14.78;49.71;102080.55;106955;1254;23280;-55
2024/02/22 11:13:34;;;;;;;3.20;2.60;;;;;;;14.82;49.53;102078.23;106691;1269;22562;-55
2024/02/22 11:16:17;;;;;;;3.20;2.70;;;;;;;14.85;49.55;102079.40;107140;1267;23728;-55
2024/02/22 11:18:46;;;;;;;2.90;2.50;;;;;;;14.88;49.41;102078.98;106903;1268;25344;-55
2024/02/22 11:21:13;;;;;;;2.60;2.40;;;;;;;14.91;49.22;102078.41;106982;1272;25325;-55
2024/02/22 11:23:40;;;;;;;2.00;1.80;;;;;;;14.94;49.18;102078.52;106965;1270;25358;-55
2024/02/22 11:26:07;;;;;;;2.50;1.50;;;;;;;14.99;48.89;102079.65;106529;1267;1002969;-55
2024/02/22 11:28:34;;;;;;;2.20;1.80;;;;;;;15.01;48.44;102073.13;107545;1268;24196;-54
2024/02/22 11:31:11;;;;;;;1.80;1.60;;;;;;;15.01;48.25;102069.29;107059;1260;22659;-54
2024/02/22 11:33:38;;;;;;;1.50;1.40;;;;;;;15.02;48.28;102065.08;107196;1273;22540;-54
2024/02/22 11:36:06;;;;;;;1.50;1.40;;;;;;;15.04;48.27;102061.20;107059;1267;22523;-54
2024/02/22 11:38:33;;;;;;;1.50;1.40;;;;;;;15.05;48.12;102063.27;107166;1274;22632;-54
2024/02/22 11:41:04;;;;;;;2.00;1.40;;;;;;;15.05;48.01;102060.64;107024;1267;25497;-54
2024/02/22 11:43:32;;;;;;;1.50;1.40;;;;;;;15.04;47.97;102054.73;107091;1267;25363;-55
2024/02/22 11:46:04;;;;;;;1.40;1.30;;;;;;;15.05;47.93;102051.92;107375;1267;25353;-54
2024/02/22 11:48:33;;;;;;;2.30;1.40;;;;;;;15.05;47.90;102047.89;106945;1273;25358;-55
2024/02/22 11:51:03;;;;;;;2.60;1.40;;;;;;;15.06;47.88;102041.94;107034;1267;24047;-54
2024/02/22 11:53:30;;;;;;;1.70;1.40;;;;;;;15.06;47.92;102037.05;107233;1267;22590;-55
2024/02/22 11:55:57;;;;;;;1.50;1.40;;;;;;;15.06;47.88;102036.34;107187;1267;22520;-54
2024/02/22 11:58:26;;;;;;;2.80;1.50;;;;;;;15.06;47.99;102033.89;107018;1267;25549;-54
2024/02/22 12:00:54;;;;;;;1.30;1.20;;;;;;;15.07;48.07;102029.51;107056;1267;25404;-55
2024/02/22 12:03:21;;;;;;;1.60;1.40;;;;;;;15.07;48.04;102022.16;106901;1270;22557;-54
2024/02/22 12:05:48;;;;;;;1.80;1.60;;;;;;;15.07;48.05;102024.42;106301;1271;1002361;-54
2024/02/22 12:08:17;;;;;;;1.40;1.30;;;;;;;15.07;47.96;102017.27;107201;1267;25446;-55
2024/02/22 12:10:47;;;;;;;1.40;1.20;;;;;;;15.06;48.00;102015.20;107179;1269;25555;-55
2024/02/22 12:13:15;;;;;;;2.30;1.50;;;;;;;15.05;47.81;102009.09;106951;1269;23115;-55
2024/02/22 12:15:43;;;;;;;1.40;1.30;;;;;;;15.04;47.78;102011.91;106960;1267;22537;-55
2024/02/22 12:18:14;;;;;;;1.50;1.40;;;;;;;15.03;47.93;102009.13;107011;1273;22582;-55
2024/02/22 12:20:41;;;;;;;2.00;1.40;;;;;;;15.04;48.00;102006.85;106980;1269;25303;-55
2024/02/22 12:23:08;;;;;;;1.30;1.20;;;;;;;15.04;48.01;102004.23;107157;1267;25347;-55
2024/02/22 12:25:36;;;;;;;2.60;1.70;;;;;;;15.03;48.03;102002.84;107100;1269;25413;-55
2024/02/22 12:28:03;;;;;;;1.50;1.40;;;;;;;15.02;47.85;101998.15;107168;1267;25516;-55
2024/02/22 12:30:32;;;;;;;1.60;1.10;;;;;;;15.01;47.79;101997.47;107056;1267;25376;-55
2024/02/22 12:33:03;;;;;;;1.90;1.70;;;;;;;14.99;47.86;102000.98;107189;1271;24224;-55
2024/02/22 12:35:30;;;;;;;2.50;1.80;;;;;;;14.99;47.80;101999.96;107331;1269;24907;-56
2024/02/22 12:37:57;;;;;;;1.70;1.60;;;;;;;14.98;47.83;101997.19;107201;1269;24225;-55
2024/02/22 12:40:26;;;;;;;3.00;1.50;;;;;;;14.97;48.02;102000.34;107156;1267;22535;-55
2024/02/22 12:42:56;;;;;;;1.70;1.60;;;;;;;14.98;48.04;102000.50;106962;1269;24249;-55
2024/02/22 12:45:23;;;;;;;2.10;1.80;;;;;;;14.97;48.14;102001.04;106827;1273;25348;-55
2024/02/22 12:47:50;;;;;;;2.30;1.40;;;;;;;14.97;48.23;102000.16;106430;1268;1003541;-55
2024/02/22 12:50:20;;;;;;;2.10;1.60;;;;;;;14.97;48.32;101998.77;106307;1268;1003759;-55
2024/02/22 12:52:48;;;;;;;1.70;1.60;;;;;;;14.98;48.39;101995.27;107108;1267;22545;-55
2024/02/22 12:55:15;;;;;;;3.00;1.90;;;;;;;14.97;48.49;101994.75;107082;1268;25425;-55
2024/02/22 12:57:42;;;;;;;2.60;1.90;;;;;;;14.97;48.57;101992.33;107115;1268;25365;-55
2024/02/22 13:00:10;;;;;;;3.10;1.70;;;;;;;14.98;48.69;101988.27;107146;1268;22831;-55
2024/02/22 13:02:37;;;;;;;2.10;1.80;;;;;;;14.97;48.72;101989.33;106665;1275;22536;-55
2024/02/22 13:05:05;;;;;;;2.80;2.10;;;;;;;14.97;48.85;101994.23;107211;1267;26747;-55
2024/02/22 13:07:33;;;;;;;2.20;1.80;;;;;;;14.97;48.94;101991.79;107005;1267;22527;-55
2024/02/22 13:10:00;;;;;;;2.90;1.80;;;;;;;14.96;49.07;101989.35;107349;1269;22638;-55
2024/02/22 13:12:27;;;;;;;2.80;1.90;;;;;;;14.96;49.04;101985.33;107261;1267;25402;-55
2024/02/22 13:14:55;;;;;;;3.70;1.80;;;;;;;14.96;49.20;101984.31;107329;1266;23613;-56
2024/02/22 13:17:22;;;;;;;3.20;1.70;;;;;;;14.97;49.29;101981.30;106219;1253;1002994;-55
2024/02/22 13:19:49;;;;;;;2.20;1.90;;;;;;;15.00;49.24;101984.90;107299;1267;25371;-55
2024/02/22 13:22:16;;;;;;;1.90;1.80;;;;;;;15.04;49.35;101987.80;107206;1267;25287;-55
2024/02/22 13:24:44;;;;;;;2.00;1.80;;;;;;;15.10;49.24;101986.63;106374;1267;1003606;-55
2024/02/22 13:27:15;;;;;;;2.70;2.10;;;;;;;15.16;49.19;101989.98;107094;1267;25428;-55
2024/02/22 13:29:43;;;;;;;2.10;1.90;;;;;;;15.22;49.11;101990.90;107027;1267;22573;-56
2024/02/22 13:32:10;;;;;;;3.40;2.20;;;;;;;15.27;49.00;101991.85;106998;1267;24238;-56
2024/02/22 13:34:37;;;;;;;2.10;1.90;;;;;;;15.32;48.96;101988.23;107033;1268;25397;-56
2024/02/22 13:37:06;;;;;;;1.80;1.70;;;;;;;15.36;48.86;101986.40;107018;1267;25400;-56
2024/02/22 13:39:34;;;;;;;3.10;1.80;;;;;;;15.41;48.76;101985.42;106736;1274;25384;-56
2024/02/22 13:42:01;;;;;;;4.00;2.70;;;;;;;15.45;48.70;101979.06;107070;1267;25352;-56
2024/02/22 13:44:28;;;;;;;3.00;1.90;;;;;;;15.49;48.59;101974.77;107062;1267;24343;-56
2024/02/22 13:46:58;;;;;;;2.00;1.80;;;;;;;15.51;48.49;101972.64;107109;1267;22777;-55
2024/02/22 13:49:26;;;;;;;2.20;1.80;;;;;;;15.52;48.41;101969.66;107041;1267;25397;-55
2024/02/22 13:51:54;;;;;;;2.10;1.80;;;;;;;15.50;48.40;101965.48;107138;1267;25408;-56
2024/02/22 13:54:27;;;;;;;2.00;1.80;;;;;;;15.49;48.43;101967.44;107084;1267;22578;-56
2024/02/22 13:56:56;;;;;;;2.00;1.80;;;;;;;15.47;48.45;101963.80;107059;1267;25393;-56
2024/02/22 13:59:23;;;;;;;2.30;2.00;;;;;;;15.47;48.48;101962.41;107012;1269;22937;-55
2024/02/22 14:01:50;;;;;;;3.30;2.30;;;;;;;15.46;48.39;101962.95;107149;1267;25391;-56
2024/02/22 14:04:18;;;;;;;2.10;1.90;;;;;;;15.44;48.39;101960.02;107056;1253;25337;-55
2024/02/22 14:06:45;;;;;;;2.50;2.20;;;;;;;15.41;48.41;101958.83;107119;1267;25414;-56
2024/02/22 14:09:15;;;;;;;2.10;1.90;;;;;;;15.39;48.42;101960.12;107161;1267;25423;-56
2024/02/22 14:11:43;;;;;;;2.20;2.00;;;;;;;15.36;48.46;101957.91;107033;1267;25422;-56
2024/02/22 14:14:10;;;;;;;2.40;2.20;;;;;;;15.33;48.48;101957.44;106808;1273;22519;-57
2024/02/22 14:16:38;;;;;;;3.10;2.30;;;;;;;15.30;48.59;101951.41;106850;1268;25399;-56
2024/02/22 14:19:05;;;;;;;2.30;2.10;;;;;;;15.27;48.65;101950.42;107111;1252;24288;-55
2024/02/22 14:21:32;;;;;;;3.30;2.10;;;;;;;15.25;48.74;101950.83;107129;1260;25341;-56
2024/02/22 14:24:00;;;;;;;2.60;2.00;;;;;;;15.23;48.76;101947.52;106770;1267;25370;-56
2024/02/22 14:26:27;;;;;;;2.80;2.10;;;;;;;15.21;48.84;101944.41;106918;1267;25376;-55
2024/02/22 14:28:54;;;;;;;1.90;1.70;;;;;;;15.19;48.93;101944.98;106748;1269;22531;-56
2024/02/22 14:31:21;;;;;;;3.60;2.30;;;;;;;15.18;48.77;101940.48;106826;1271;23905;-55
2024/02/22 14:33:48;;;;;;;2.10;1.90;;;;;;;15.15;48.77;101938.27;106982;1268;25485;-56
2024/02/22 14:36:16;;;;;;;3.00;1.80;;;;;;;15.12;48.80;101936.41;106917;1267;25386;-56
2024/02/22 14:38:43;;;;;;;3.30;2.20;;;;;;;15.09;48.86;101935.27;106706;1272;25535;-55
2024/02/22 14:41:10;;;;;;;2.50;2.00;;;;;;;15.05;48.90;101933.43;107020;1268;25493;-56
2024/02/22 14:43:37;;;;;;;2.60;2.40;;;;;;;15.01;48.78;101931.25;106746;1269;25358;-56
2024/02/22 14:46:04;;;;;;;2.70;2.10;;;;;;;14.96;48.87;101929.59;106738;1270;25491;-56
2024/02/22 14:48:32;;;;;;;2.70;2.20;;;;;;;14.91;48.84;101925.70;106709;1269;25388;-57
2024/02/22 14:50:59;;;;;;;3.30;2.20;;;;;;;14.87;48.89;101924.21;106979;1269;25366;-57
2024/02/22 14:53:27;;;;;;;2.80;2.20;;;;;;;14.81;49.04;101924.67;106754;1275;25458;-57
2024/02/22 14:55:54;;;;;;;2.50;2.30;;;;;;;14.77;49.15;101925.46;107186;1268;25358;-57
2024/02/22 14:58:23;;;;;;;2.20;2.00;;;;;;;14.73;49.12;101927.29;107190;1274;25357;-57
2024/02/22 15:00:50;;;;;;;2.00;1.70;;;;;;;14.68;49.22;101924.23;107079;1267;25337;-58
2024/02/22 15:03:20;;;;;;;2.40;2.20;;;;;;;14.63;49.12;101921.38;107038;1268;23383;-55
2024/02/22 15:05:48;;;;;;;3.30;2.50;;;;;;;14.57;49.21;101922.36;106350;1274;1003686;-57
2024/02/22 15:08:15;;;;;;;2.80;2.30;;;;;;;14.51;49.19;101921.43;106895;1269;25404;-57
2024/02/22 15:10:43;;;;;;;2.40;2.20;;;;;;;14.45;49.16;101919.98;107032;1274;25400;-57
2024/02/22 15:13:10;;;;;;;3.00;2.30;;;;;;;14.38;49.28;101917.67;106982;1267;25351;-57
2024/02/22 15:15:41;;;;;;;3.20;2.20;;;;;;;14.31;49.41;101915.71;106944;1269;25501;-55
2024/02/22 15:18:08;;;;;;;2.70;2.00;;;;;;;14.23;49.57;101916.52;106799;1274;25448;-55
2024/02/22 15:20:35;;;;;;;2.50;2.20;;;;;;;14.18;49.73;101915.91;106989;1271;26191;-56
2024/02/22 15:23:02;;;;;;;2.70;2.40;;;;;;;14.10;49.86;101920.79;107058;1269;25387;-56
2024/02/22 15:25:29;;;;;;;3.40;2.70;;;;;;;14.02;50.05;101915.52;107045;1274;22526;-58
2024/02/22 15:27:56;;;;;;;2.60;2.00;;;;;;;13.96;50.26;101912.30;107015;1269;25376;-55
2024/02/22 15:30:24;;;;;;;4.00;2.20;;;;;;;13.90;50.50;101914.84;106949;1269;25389;-56
2024/02/22 15:32:55;;;;;;;2.80;1.90;;;;;;;13.86;50.60;101917.70;107111;1267;24363;-55
2024/02/22 15:35:24;;;;;;;2.70;2.30;;;;;;;13.81;50.80;101915.01;106929;1269;25413;-55
2024/02/22 15:37:52;;;;;;;3.10;2.40;;;;;;;13.76;50.99;101916.65;107088;1268;25351;-55
2024/02/22 15:40:19;;;;;;;2.10;1.90;;;;;;;13.70;51.17;101917.61;106822;1267;25493;-56
2024/02/22 15:42:48;;;;;;;2.80;2.30;;;;;;;13.66;51.36;101918.21;107089;1260;22528;-56
2024/02/22 15:45:16;;;;;;;2.80;2.20;;;;;;;13.62;51.46;101919.15;107081;1268;25453;-55
2024/02/22 15:47:43;;;;;;;3.30;2.10;;;;;;;13.59;51.61;101918.85;107085;1269;25453;-56
2024/02/22 15:50:11;;;;;;;2.00;1.80;;;;;;;13.57;51.77;101920.13;107080;1269;24198;-55
2024/02/22 15:52:39;;;;;;;3.20;2.50;;;;;;;13.53;51.90;101919.63;106620;1269;25407;-55
2024/02/22 15:55:06;;;;;;;3.10;2.70;;;;;;;13.50;52.08;101918.99;106924;1269;25439;-55
2024/02/22 15:57:33;;;;;;;3.40;2.40;;;;;;;13.47;52.25;101921.12;107106;1253;22646;-56
2024/02/22 16:00:01;;;;;;;4.20;2.10;;;;;;;13.44;52.31;101925.87;107080;1267;25414;-56
2024/02/22 16:02:36;;;;;;;2.40;2.10;;;;;;;13.42;52.46;101927.48;107074;1267;24370;-55
2024/02/22 16:05:05;;;;;;;2.10;1.90;;;;;;;13.39;52.57;101926.30;107101;1267;25369;-56
2024/02/22 16:07:32;;;;;;;2.00;1.80;;;;;;;13.36;52.65;101932.64;107024;1267;24268;-56